메인 페이지
METAR-TAF:

METAR-TAF

공항 :

크라이스트처치, 뉴질랜드

크라이스트처치 국제공항

위도: 43-29S, 경도: 172-33E, 고도: 38m

현재 날씨관측

예보는 28분 전, 15:30시(UTC)에 발표되었습니다.
10kt
온도 13°C
습도 94%
기압 1010 hPa
시정: 9000m

METAR: NZCH 191530Z AUTO 10010KT 9000 BKN010/// OVC029/// 13/12 Q1010 TEMPO 3000 RADZ BKN004

시각: 04:58 (15:58 UTC)

예보

예보는 4 시간 54분 전, 11:04시(UTC)에 발표되었습니다.
예보 대상 시간: 19일 12시부터 20일 12시까지 (UTC)
동북동8kt
시정: 6000m
고도 800ft 상공 구름 보통
고도 1200ft 상공 구름 많음
약한비, 이슬비
일시적
19일 12시부터 19일 18시까지 (UTC)
시정: 3000m
고도 400ft 상공 구름 많음
비, 이슬비
전환 중
19일 16시부터 19일 18시까지 (UTC)
시정 10km 이상
고도 1200ft 상공 구름 보통
고도 2000ft 상공 구름 많음
약한비
일시적
19일 18시부터 20일 12시까지 (UTC)
시정: 4000m
고도 1400ft 상공 구름 많음
전환 중
19일 22시부터 20일 00시까지 (UTC)
15kt, 순간 최대 풍속 25kt
확률 30% :
일시적
20일 00시부터 20일 10시까지 (UTC)
시정: 2500m
고도 900ft 상공 구름 많음
강한비

TAF: NZCH 191104Z 1912/2012 06008KT 6000 -RADZ SCT008 BKN012 TEMPO 1912/1918 3000 RADZ BKN004 BECMG 1916/1918 9999 -RA SCT012 BKN020 TEMPO 1918/2012 4000 RA BKN014 BECMG 1922/2000 18015G25KT PROB30 TEMPO 2000/2010 2500 +RA BKN009

4,000개 이상의 공항 관측 자료 및 예보 (METAR 및 TAF 보고).

지도상에서 검색 가능한 기상관측소가 노란 점과 빨간 점으로 표시되어 있습니다.

기상관측소 명을 보려면 표시 위로 마우스를 이동하세요.

날씨 관측과 예보를 보려면 클릭하세요.

지도 변경 : 확대하려면 엑스 표시가 있는 녹색 버튼, 축소하려면 빼기 표시가 있는 녹색 버튼, 다음 페이지의 지도를 보려면 녹색 화살표를 클릭하세요.


METAR-TAF: